sensor_id;sensor_type;location;lat;lon;timestamp;pressure;altitude;pressure_sealevel;temperature;humidity
43663;BME280;74813;56.104;40.358;2024-03-17T00:01:38;100278.03;;;-1.57;69.88
43663;BME280;74813;56.104;40.358;2024-03-17T00:04:11;100278.72;;;-1.69;70.00
43663;BME280;74813;56.104;40.358;2024-03-17T00:06:43;100276.53;;;-1.59;69.90
43663;BME280;74813;56.104;40.358;2024-03-17T00:09:15;100271.97;;;-1.59;69.96
43663;BME280;74813;56.104;40.358;2024-03-17T00:11:48;100268.97;;;-1.49;69.44
43663;BME280;74813;56.104;40.358;2024-03-17T00:14:20;100266.66;;;-1.52;69.75
43663;BME280;74813;56.104;40.358;2024-03-17T00:16:52;100271.47;;;-1.47;69.59
43663;BME280;74813;56.104;40.358;2024-03-17T00:19:24;100255.06;;;-1.24;69.00
43663;BME280;74813;56.104;40.358;2024-03-17T00:21:57;100266.81;;;-1.11;67.92
43663;BME280;74813;56.104;40.358;2024-03-17T00:24:29;100254.66;;;-1.21;67.82
43663;BME280;74813;56.104;40.358;2024-03-17T00:27:01;100263.81;;;-1.44;68.99
43663;BME280;74813;56.104;40.358;2024-03-17T00:29:34;100260.22;;;-1.51;69.73
43663;BME280;74813;56.104;40.358;2024-03-17T00:32:06;100267.44;;;-1.58;70.13
43663;BME280;74813;56.104;40.358;2024-03-17T00:34:39;100260.00;;;-1.71;70.53
43663;BME280;74813;56.104;40.358;2024-03-17T00:37:11;100262.53;;;-1.69;70.20
43663;BME280;74813;56.104;40.358;2024-03-17T00:39:43;100265.53;;;-1.79;70.36
43663;BME280;74813;56.104;40.358;2024-03-17T00:42:15;100267.31;;;-1.86;70.57
43663;BME280;74813;56.104;40.358;2024-03-17T00:44:48;100258.59;;;-1.88;71.46
43663;BME280;74813;56.104;40.358;2024-03-17T00:47:20;100265.38;;;-1.78;70.85
43663;BME280;74813;56.104;40.358;2024-03-17T00:49:53;100257.66;;;-1.96;71.35
43663;BME280;74813;56.104;40.358;2024-03-17T00:52:25;100258.16;;;-1.92;71.44
43663;BME280;74813;56.104;40.358;2024-03-17T00:54:59;100253.44;;;-1.83;71.10
43663;BME280;74813;56.104;40.358;2024-03-17T00:57:31;100250.06;;;-1.70;70.38
43663;BME280;74813;56.104;40.358;2024-03-17T01:00:04;100259.56;;;-1.75;70.54
43663;BME280;74813;56.104;40.358;2024-03-17T01:02:37;100248.78;;;-1.75;70.67
43663;BME280;74813;56.104;40.358;2024-03-17T01:05:09;100253.69;;;-1.78;70.70
43663;BME280;74813;56.104;40.358;2024-03-17T01:07:42;100250.34;;;-1.65;70.45
43663;BME280;74813;56.104;40.358;2024-03-17T01:10:14;100248.91;;;-1.61;70.28
43663;BME280;74813;56.104;40.358;2024-03-17T01:12:46;100246.84;;;-1.59;69.89
43663;BME280;74813;56.104;40.358;2024-03-17T01:15:19;100247.63;;;-1.65;69.98
43663;BME280;74813;56.104;40.358;2024-03-17T01:17:51;100243.88;;;-1.64;70.08
43663;BME280;74813;56.104;40.358;2024-03-17T01:20:24;100238.81;;;-1.74;70.58
43663;BME280;74813;56.104;40.358;2024-03-17T01:22:56;100243.00;;;-1.71;70.35
43663;BME280;74813;56.104;40.358;2024-03-17T01:25:28;100240.22;;;-1.57;70.21
43663;BME280;74813;56.104;40.358;2024-03-17T01:28:01;100243.72;;;-1.63;70.25
43663;BME280;74813;56.104;40.358;2024-03-17T01:30:33;100226.78;;;-1.71;70.66
43663;BME280;74813;56.104;40.358;2024-03-17T01:33:05;100243.56;;;-1.55;69.90
43663;BME280;74813;56.104;40.358;2024-03-17T01:35:37;100244.31;;;-1.61;69.72
43663;BME280;74813;56.104;40.358;2024-03-17T01:38:10;100238.56;;;-1.58;69.57
43663;BME280;74813;56.104;40.358;2024-03-17T01:40:42;100234.25;;;-1.74;70.55
43663;BME280;74813;56.104;40.358;2024-03-17T01:43:15;100231.38;;;-1.72;70.64
43663;BME280;74813;56.104;40.358;2024-03-17T01:45:47;100228.59;;;-1.79;70.73
43663;BME280;74813;56.104;40.358;2024-03-17T01:48:19;100221.13;;;-1.98;71.25
43663;BME280;74813;56.104;40.358;2024-03-17T01:50:53;100227.63;;;-1.71;70.89
43663;BME280;74813;56.104;40.358;2024-03-17T01:53:27;100218.56;;;-1.63;70.36
43663;BME280;74813;56.104;40.358;2024-03-17T01:56:00;100216.63;;;-1.48;69.78
43663;BME280;74813;56.104;40.358;2024-03-17T01:58:32;100224.50;;;-1.53;69.58
43663;BME280;74813;56.104;40.358;2024-03-17T02:01:05;100217.41;;;-1.54;69.84
43663;BME280;74813;56.104;40.358;2024-03-17T02:03:37;100221.88;;;-2.04;71.62
43663;BME280;74813;56.104;40.358;2024-03-17T02:06:09;100217.28;;;-1.89;71.14
43663;BME280;74813;56.104;40.358;2024-03-17T02:08:53;100213.28;;;-1.93;71.43
43663;BME280;74813;56.104;40.358;2024-03-17T02:11:29;100215.47;;;-1.82;70.84
43663;BME280;74813;56.104;40.358;2024-03-17T02:14:02;100212.91;;;-1.90;71.28
43663;BME280;74813;56.104;40.358;2024-03-17T02:16:34;100201.50;;;-1.70;70.72
43663;BME280;74813;56.104;40.358;2024-03-17T02:19:07;100204.81;;;-1.68;70.70
43663;BME280;74813;56.104;40.358;2024-03-17T02:21:39;100202.63;;;-1.58;70.19
43663;BME280;74813;56.104;40.358;2024-03-17T02:24:11;100207.13;;;-1.87;71.10
43663;BME280;74813;56.104;40.358;2024-03-17T02:26:44;100200.31;;;-2.04;71.72
43663;BME280;74813;56.104;40.358;2024-03-17T02:29:16;100201.72;;;-2.08;71.84
43663;BME280;74813;56.104;40.358;2024-03-17T02:31:48;100196.47;;;-1.95;71.81
43663;BME280;74813;56.104;40.358;2024-03-17T02:34:20;100203.50;;;-2.16;72.05
43663;BME280;74813;56.104;40.358;2024-03-17T02:36:53;100192.38;;;-2.27;72.36
43663;BME280;74813;56.104;40.358;2024-03-17T02:39:25;100204.75;;;-2.33;72.69
43663;BME280;74813;56.104;40.358;2024-03-17T02:41:58;100206.53;;;-2.40;73.29
43663;BME280;74813;56.104;40.358;2024-03-17T02:44:31;100195.81;;;-2.33;73.04
43663;BME280;74813;56.104;40.358;2024-03-17T02:47:05;100193.78;;;-2.31;72.51
43663;BME280;74813;56.104;40.358;2024-03-17T02:49:37;100192.38;;;-2.27;72.70
43663;BME280;74813;56.104;40.358;2024-03-17T02:52:10;100188.53;;;-2.54;73.48
43663;BME280;74813;56.104;40.358;2024-03-17T02:54:43;100174.22;;;-2.70;73.99
43663;BME280;74813;56.104;40.358;2024-03-17T02:57:15;100180.97;;;-2.44;73.80
43663;BME280;74813;56.104;40.358;2024-03-17T02:59:47;100181.38;;;-2.47;73.33
43663;BME280;74813;56.104;40.358;2024-03-17T03:02:19;100174.56;;;-2.43;73.26
43663;BME280;74813;56.104;40.358;2024-03-17T03:04:52;100164.09;;;-2.68;73.82
43663;BME280;74813;56.104;40.358;2024-03-17T03:07:24;100179.09;;;-2.29;73.00
43663;BME280;74813;56.104;40.358;2024-03-17T03:09:56;100177.09;;;-2.56;73.38
43663;BME280;74813;56.104;40.358;2024-03-17T03:12:29;100170.66;;;-2.55;73.67
43663;BME280;74813;56.104;40.358;2024-03-17T03:15:01;100178.00;;;-2.34;73.06
43663;BME280;74813;56.104;40.358;2024-03-17T03:17:33;100171.13;;;-2.37;73.12
43663;BME280;74813;56.104;40.358;2024-03-17T03:20:07;100170.09;;;-2.51;73.20
43663;BME280;74813;56.104;40.358;2024-03-17T03:22:39;100171.22;;;-2.60;73.46
43663;BME280;74813;56.104;40.358;2024-03-17T03:25:12;100171.16;;;-2.52;72.96
43663;BME280;74813;56.104;40.358;2024-03-17T03:27:44;100171.31;;;-2.53;73.08
43663;BME280;74813;56.104;40.358;2024-03-17T03:30:16;100167.03;;;-2.48;73.31
43663;BME280;74813;56.104;40.358;2024-03-17T03:32:49;100171.34;;;-2.68;73.52
43663;BME280;74813;56.104;40.358;2024-03-17T03:35:21;100173.56;;;-2.57;73.66
43663;BME280;74813;56.104;40.358;2024-03-17T03:37:53;100169.75;;;-2.63;73.28
43663;BME280;74813;56.104;40.358;2024-03-17T03:40:26;100169.38;;;-2.23;71.90
43663;BME280;74813;56.104;40.358;2024-03-17T03:42:59;100177.91;;;-2.41;72.59
43663;BME280;74813;56.104;40.358;2024-03-17T03:45:31;100192.34;;;-2.64;73.01
43663;BME280;74813;56.104;40.358;2024-03-17T03:48:04;100169.75;;;-2.63;72.85
43663;BME280;74813;56.104;40.358;2024-03-17T03:50:40;100174.78;;;-2.60;73.11
43663;BME280;74813;56.104;40.358;2024-03-17T03:53:12;100174.97;;;-2.61;73.06
43663;BME280;74813;56.104;40.358;2024-03-17T03:55:45;100173.09;;;-2.61;73.43
43663;BME280;74813;56.104;40.358;2024-03-17T03:58:17;100173.63;;;-2.50;73.33
43663;BME280;74813;56.104;40.358;2024-03-17T04:00:49;100167.22;;;-2.49;73.09
43663;BME280;74813;56.104;40.358;2024-03-17T04:03:22;100169.09;;;-2.65;73.51
43663;BME280;74813;56.104;40.358;2024-03-17T04:06:04;100133.47;;;-2.82;73.33
43663;BME280;74813;56.104;40.358;2024-03-17T04:08:38;100176.41;;;-2.44;73.14
43663;BME280;74813;56.104;40.358;2024-03-17T04:11:10;100161.94;;;-2.57;73.46
43663;BME280;74813;56.104;40.358;2024-03-17T04:13:42;100174.72;;;-2.30;72.41
43663;BME280;74813;56.104;40.358;2024-03-17T04:16:15;100168.34;;;-2.44;72.55
43663;BME280;74813;56.104;40.358;2024-03-17T04:18:47;100168.16;;;-2.42;72.73
43663;BME280;74813;56.104;40.358;2024-03-17T04:21:19;100164.25;;;-2.40;72.76
43663;BME280;74813;56.104;40.358;2024-03-17T04:23:52;100159.16;;;-2.49;72.84
43663;BME280;74813;56.104;40.358;2024-03-17T04:26:24;100155.69;;;-2.43;72.90
43663;BME280;74813;56.104;40.358;2024-03-17T04:28:56;100157.25;;;-2.34;72.41
43663;BME280;74813;56.104;40.358;2024-03-17T04:31:29;100146.66;;;-2.14;71.95
43663;BME280;74813;56.104;40.358;2024-03-17T04:34:01;100147.03;;;-1.96;71.29
43663;BME280;74813;56.104;40.358;2024-03-17T04:36:33;100146.31;;;-1.61;70.08
43663;BME280;74813;56.104;40.358;2024-03-17T04:39:06;100136.31;;;-1.67;70.30
43663;BME280;74813;56.104;40.358;2024-03-17T04:41:38;100136.34;;;-1.33;69.07
43663;BME280;74813;56.104;40.358;2024-03-17T04:44:10;100135.25;;;-1.10;67.73
43663;BME280;74813;56.104;40.358;2024-03-17T04:46:43;100136.84;;;-1.22;67.75
43663;BME280;74813;56.104;40.358;2024-03-17T04:49:16;100147.09;;;-1.11;67.67
43663;BME280;74813;56.104;40.358;2024-03-17T04:51:48;100151.28;;;-1.37;68.60
43663;BME280;74813;56.104;40.358;2024-03-17T04:54:20;100150.16;;;-0.79;67.54
43663;BME280;74813;56.104;40.358;2024-03-17T04:56:53;100150.38;;;-0.26;65.23
43663;BME280;74813;56.104;40.358;2024-03-17T04:59:25;100158.91;;;-0.77;66.38
43663;BME280;74813;56.104;40.358;2024-03-17T05:01:57;100156.16;;;-0.43;65.75
43663;BME280;74813;56.104;40.358;2024-03-17T05:04:29;100147.91;;;-0.21;65.02
43663;BME280;74813;56.104;40.358;2024-03-17T05:07:02;100155.44;;;-0.10;64.98
43663;BME280;74813;56.104;40.358;2024-03-17T05:09:34;100151.69;;;0.11;64.20
43663;BME280;74813;56.104;40.358;2024-03-17T05:12:07;100153.75;;;-0.11;64.28
43663;BME280;74813;56.104;40.358;2024-03-17T05:14:39;100154.97;;;-0.20;64.56
43663;BME280;74813;56.104;40.358;2024-03-17T05:17:11;100147.97;;;0.26;63.34
43663;BME280;74813;56.104;40.358;2024-03-17T05:19:44;100150.66;;;0.19;63.82
43663;BME280;74813;56.104;40.358;2024-03-17T05:22:16;100137.97;;;0.33;63.11
43663;BME280;74813;56.104;40.358;2024-03-17T05:24:48;100143.78;;;0.03;63.79
43663;BME280;74813;56.104;40.358;2024-03-17T05:27:20;100136.28;;;0.32;63.44
43663;BME280;74813;56.104;40.358;2024-03-17T05:29:53;100133.75;;;0.83;62.24
43663;BME280;74813;56.104;40.358;2024-03-17T05:32:25;100132.31;;;0.94;61.40
43663;BME280;74813;56.104;40.358;2024-03-17T05:34:57;100131.19;;;1.15;60.90
43663;BME280;74813;56.104;40.358;2024-03-17T05:37:30;100134.25;;;1.39;59.56
43663;BME280;74813;56.104;40.358;2024-03-17T05:40:02;100131.47;;;1.52;60.07
43663;BME280;74813;56.104;40.358;2024-03-17T05:42:35;100143.06;;;1.21;60.37
43663;BME280;74813;56.104;40.358;2024-03-17T05:45:07;100142.75;;;1.49;59.65
43663;BME280;74813;56.104;40.358;2024-03-17T05:47:40;100134.34;;;1.57;59.45
43663;BME280;74813;56.104;40.358;2024-03-17T05:50:12;100141.31;;;1.85;58.86
43663;BME280;74813;56.104;40.358;2024-03-17T05:52:44;100135.03;;;2.48;56.69
43663;BME280;74813;56.104;40.358;2024-03-17T05:55:16;100139.06;;;2.64;56.02
43663;BME280;74813;56.104;40.358;2024-03-17T05:57:50;100135.88;;;2.17;57.62
43663;BME280;74813;56.104;40.358;2024-03-17T06:00:22;100140.25;;;2.18;57.55
43663;BME280;74813;56.104;40.358;2024-03-17T06:02:55;100132.69;;;2.51;56.55
43663;BME280;74813;56.104;40.358;2024-03-17T06:05:30;100139.66;;;2.15;57.16
43663;BME280;74813;56.104;40.358;2024-03-17T06:08:04;100136.25;;;2.77;55.72
43663;BME280;74813;56.104;40.358;2024-03-17T06:10:37;100141.78;;;3.26;55.01
43663;BME280;74813;56.104;40.358;2024-03-17T06:13:10;100136.41;;;3.19;54.44
43663;BME280;74813;56.104;40.358;2024-03-17T06:15:43;100138.31;;;3.00;54.51
43663;BME280;74813;56.104;40.358;2024-03-17T06:18:16;100136.88;;;3.16;54.69
43663;BME280;74813;56.104;40.358;2024-03-17T06:20:48;100128.19;;;4.82;50.25
43663;BME280;74813;56.104;40.358;2024-03-17T06:23:20;100138.66;;;4.19;51.45
43663;BME280;74813;56.104;40.358;2024-03-17T06:25:53;100138.22;;;3.92;51.96
43663;BME280;74813;56.104;40.358;2024-03-17T06:28:25;100143.88;;;3.91;52.38
43663;BME280;74813;56.104;40.358;2024-03-17T06:30:58;100145.22;;;4.00;52.30
43663;BME280;74813;56.104;40.358;2024-03-17T06:33:31;100131.13;;;3.06;56.23
43663;BME280;74813;56.104;40.358;2024-03-17T06:36:04;100133.69;;;3.37;54.46
43663;BME280;74813;56.104;40.358;2024-03-17T06:38:36;100127.47;;;4.74;51.00
43663;BME280;74813;56.104;40.358;2024-03-17T06:41:12;100125.38;;;5.41;48.88
43663;BME280;74813;56.104;40.358;2024-03-17T06:43:44;100130.44;;;4.61;50.70
43663;BME280;74813;56.104;40.358;2024-03-17T06:46:16;100129.94;;;4.64;51.12
43663;BME280;74813;56.104;40.358;2024-03-17T06:48:49;100122.44;;;5.18;49.83
43663;BME280;74813;56.104;40.358;2024-03-17T06:51:21;100131.13;;;4.45;50.75
43663;BME280;74813;56.104;40.358;2024-03-17T06:53:53;100138.59;;;3.47;52.58
43663;BME280;74813;56.104;40.358;2024-03-17T06:56:25;100141.84;;;4.16;53.56
43663;BME280;74813;56.104;40.358;2024-03-17T06:58:58;100130.50;;;5.77;48.20
43663;BME280;74813;56.104;40.358;2024-03-17T07:01:30;100129.03;;;5.46;49.71
43663;BME280;74813;56.104;40.358;2024-03-17T07:04:02;100131.25;;;3.66;53.30
43663;BME280;74813;56.104;40.358;2024-03-17T07:06:35;100128.75;;;5.19;49.79
43663;BME280;74813;56.104;40.358;2024-03-17T07:09:07;100126.75;;;5.14;50.03
43663;BME280;74813;56.104;40.358;2024-03-17T07:11:39;100129.53;;;5.43;49.39
43663;BME280;74813;56.104;40.358;2024-03-17T07:14:12;100129.50;;;5.95;47.23
43663;BME280;74813;56.104;40.358;2024-03-17T07:16:44;100126.06;;;6.67;46.27
43663;BME280;74813;56.104;40.358;2024-03-17T07:19:16;100125.81;;;5.90;46.81
43663;BME280;74813;56.104;40.358;2024-03-17T07:21:49;100127.66;;;6.80;44.89
43663;BME280;74813;56.104;40.358;2024-03-17T07:24:21;100126.50;;;6.76;45.12
43663;BME280;74813;56.104;40.358;2024-03-17T07:26:53;100122.63;;;6.38;46.33
43663;BME280;74813;56.104;40.358;2024-03-17T07:29:26;100118.94;;;5.87;46.28
43663;BME280;74813;56.104;40.358;2024-03-17T07:31:58;100123.44;;;7.11;44.80
43663;BME280;74813;56.104;40.358;2024-03-17T07:34:31;100117.41;;;6.54;45.89
43663;BME280;74813;56.104;40.358;2024-03-17T07:37:03;100117.28;;;7.21;44.35
43663;BME280;74813;56.104;40.358;2024-03-17T07:39:36;100115.47;;;7.98;42.59
43663;BME280;74813;56.104;40.358;2024-03-17T07:42:08;100122.00;;;8.46;41.61
43663;BME280;74813;56.104;40.358;2024-03-17T07:44:43;100116.41;;;7.82;42.50
43663;BME280;74813;56.104;40.358;2024-03-17T07:47:16;100118.13;;;6.32;45.59
43663;BME280;74813;56.104;40.358;2024-03-17T07:49:48;100108.44;;;6.41;46.44
43663;BME280;74813;56.104;40.358;2024-03-17T07:52:20;100113.56;;;6.88;43.36
43663;BME280;74813;56.104;40.358;2024-03-17T07:54:52;100097.31;;;7.92;42.31
43663;BME280;74813;56.104;40.358;2024-03-17T07:57:25;100088.53;;;8.49;41.29
43663;BME280;74813;56.104;40.358;2024-03-17T07:59:57;100102.78;;;8.46;41.56
43663;BME280;74813;56.104;40.358;2024-03-17T08:02:29;100090.06;;;8.72;40.38
43663;BME280;74813;56.104;40.358;2024-03-17T08:05:02;100091.97;;;9.77;38.57
43663;BME280;74813;56.104;40.358;2024-03-17T08:07:35;100085.94;;;9.85;37.95
43663;BME280;74813;56.104;40.358;2024-03-17T08:10:08;100081.28;;;9.18;39.13
43663;BME280;74813;56.104;40.358;2024-03-17T08:12:40;100088.41;;;9.82;37.14
43663;BME280;74813;56.104;40.358;2024-03-17T08:15:12;100098.06;;;8.74;38.85
43663;BME280;74813;56.104;40.358;2024-03-17T08:17:45;100089.28;;;10.23;37.56
43663;BME280;74813;56.104;40.358;2024-03-17T08:20:17;100077.63;;;9.65;37.59
43663;BME280;74813;56.104;40.358;2024-03-17T08:22:49;100071.13;;;10.84;36.22
43663;BME280;74813;56.104;40.358;2024-03-17T08:25:22;100071.38;;;10.87;35.14
43663;BME280;74813;56.104;40.358;2024-03-17T08:27:54;100071.56;;;11.81;33.27
43663;BME280;74813;56.104;40.358;2024-03-17T08:30:26;100068.16;;;11.50;32.80
43663;BME280;74813;56.104;40.358;2024-03-17T08:32:59;100061.28;;;12.66;31.97
43663;BME280;74813;56.104;40.358;2024-03-17T08:35:31;100068.88;;;11.06;34.15
43663;BME280;74813;56.104;40.358;2024-03-17T08:38:04;100071.03;;;9.76;37.22
43663;BME280;74813;56.104;40.358;2024-03-17T08:40:36;100060.38;;;11.62;32.40
43663;BME280;74813;56.104;40.358;2024-03-17T08:43:08;100078.22;;;11.10;32.66
43663;BME280;74813;56.104;40.358;2024-03-17T08:45:41;100070.59;;;10.41;34.38
43663;BME280;74813;56.104;40.358;2024-03-17T08:48:13;100065.66;;;12.03;31.49
43663;BME280;74813;56.104;40.358;2024-03-17T08:50:55;100080.75;;;11.67;31.83
43663;BME280;74813;56.104;40.358;2024-03-17T08:53:27;100053.28;;;13.42;29.76
43663;BME280;74813;56.104;40.358;2024-03-17T08:56:00;100057.59;;;11.68;31.99
43663;BME280;74813;56.104;40.358;2024-03-17T08:58:35;100057.84;;;12.79;30.12
43663;BME280;74813;56.104;40.358;2024-03-17T09:01:07;100046.72;;;14.32;28.43
43663;BME280;74813;56.104;40.358;2024-03-17T09:03:40;100054.59;;;14.91;26.84
43663;BME280;74813;56.104;40.358;2024-03-17T09:06:16;100055.53;;;15.27;26.31
43663;BME280;74813;56.104;40.358;2024-03-17T09:08:48;100054.44;;;14.54;27.25
43663;BME280;74813;56.104;40.358;2024-03-17T09:11:21;100055.97;;;14.60;27.14
43663;BME280;74813;56.104;40.358;2024-03-17T09:13:53;100049.41;;;15.95;25.51
43663;BME280;74813;56.104;40.358;2024-03-17T09:16:25;100053.59;;;15.14;25.81
43663;BME280;74813;56.104;40.358;2024-03-17T09:18:58;100041.66;;;14.86;26.80
43663;BME280;74813;56.104;40.358;2024-03-17T09:21:30;100047.09;;;13.50;27.50
43663;BME280;74813;56.104;40.358;2024-03-17T09:24:02;100037.00;;;17.31;23.85
43663;BME280;74813;56.104;40.358;2024-03-17T09:26:35;100028.72;;;18.79;21.94
43663;BME280;74813;56.104;40.358;2024-03-17T09:29:07;100021.19;;;22.52;19.02
43663;BME280;74813;56.104;40.358;2024-03-17T09:31:39;100030.84;;;17.51;23.42
43663;BME280;74813;56.104;40.358;2024-03-17T09:34:12;100023.56;;;22.10;18.59
43663;BME280;74813;56.104;40.358;2024-03-17T09:36:44;100023.56;;;22.22;18.76
43663;BME280;74813;56.104;40.358;2024-03-17T09:39:16;100025.19;;;23.27;17.62
43663;BME280;74813;56.104;40.358;2024-03-17T09:41:49;100036.16;;;18.05;22.42
43663;BME280;74813;56.104;40.358;2024-03-17T09:44:21;100036.88;;;17.45;22.42
43663;BME280;74813;56.104;40.358;2024-03-17T09:46:54;100024.25;;;20.05;20.50
43663;BME280;74813;56.104;40.358;2024-03-17T09:49:26;100052.53;;;13.36;27.67
43663;BME280;74813;56.104;40.358;2024-03-17T09:51:59;100032.38;;;12.82;28.64
43663;BME280;74813;56.104;40.358;2024-03-17T09:54:31;100058.84;;;11.31;31.47
43663;BME280;74813;56.104;40.358;2024-03-17T09:57:08;100039.41;;;15.30;26.21
43663;BME280;74813;56.104;40.358;2024-03-17T09:59:51;100044.16;;;12.35;29.40
43663;BME280;74813;56.104;40.358;2024-03-17T10:02:23;100033.09;;;12.93;28.74
43663;BME280;74813;56.104;40.358;2024-03-17T10:04:55;100033.97;;;13.12;28.87
43663;BME280;74813;56.104;40.358;2024-03-17T10:07:37;100017.47;;;12.25;30.17
43663;BME280;74813;56.104;40.358;2024-03-17T10:10:11;100036.75;;;11.41;31.31
43663;BME280;74813;56.104;40.358;2024-03-17T10:12:49;100027.22;;;11.73;31.26
43663;BME280;74813;56.104;40.358;2024-03-17T10:15:21;100013.94;;;13.26;28.57
43663;BME280;74813;56.104;40.358;2024-03-17T10:17:53;100005.78;;;14.62;28.21
43663;BME280;74813;56.104;40.358;2024-03-17T10:20:26;100002.75;;;14.45;26.89
43663;BME280;74813;56.104;40.358;2024-03-17T10:23:05;100006.53;;;14.49;27.76
43663;BME280;74813;56.104;40.358;2024-03-17T10:25:41;100011.41;;;15.81;25.93
43663;BME280;74813;56.104;40.358;2024-03-17T10:28:14;100005.59;;;15.27;26.16
43663;BME280;74813;56.104;40.358;2024-03-17T10:30:57;99988.75;;;16.87;24.17
43663;BME280;74813;56.104;40.358;2024-03-17T10:33:30;99973.25;;;17.95;22.92
43663;BME280;74813;56.104;40.358;2024-03-17T10:36:03;99988.72;;;13.08;29.24
43663;BME280;74813;56.104;40.358;2024-03-17T10:38:35;99993.03;;;13.15;29.16
43663;BME280;74813;56.104;40.358;2024-03-17T10:41:09;99976.63;;;17.57;24.07
43663;BME280;74813;56.104;40.358;2024-03-17T10:43:42;99963.59;;;18.66;22.50
43663;BME280;74813;56.104;40.358;2024-03-17T10:46:15;99974.16;;;18.34;22.73
43663;BME280;74813;56.104;40.358;2024-03-17T10:48:48;99969.03;;;14.98;25.81
43663;BME280;74813;56.104;40.358;2024-03-17T10:51:21;99974.13;;;13.65;27.77
43663;BME280;74813;56.104;40.358;2024-03-17T10:53:55;99963.19;;;14.99;27.13
43663;BME280;74813;56.104;40.358;2024-03-17T10:56:28;99977.69;;;14.96;26.48
43663;BME280;74813;56.104;40.358;2024-03-17T10:59:02;99967.97;;;13.87;28.00
43663;BME280;74813;56.104;40.358;2024-03-17T11:01:36;99969.22;;;12.70;30.23
43663;BME280;74813;56.104;40.358;2024-03-17T11:04:12;99974.38;;;14.80;26.85
43663;BME280;74813;56.104;40.358;2024-03-17T11:06:45;99970.66;;;16.75;24.73
43663;BME280;74813;56.104;40.358;2024-03-17T11:09:18;99980.16;;;16.74;24.58
43663;BME280;74813;56.104;40.358;2024-03-17T11:11:51;99963.38;;;18.24;22.99
43663;BME280;74813;56.104;40.358;2024-03-17T11:14:23;99972.41;;;15.86;25.77
43663;BME280;74813;56.104;40.358;2024-03-17T11:16:55;99962.38;;;16.84;24.53
43663;BME280;74813;56.104;40.358;2024-03-17T11:19:28;99957.69;;;20.19;20.34
43663;BME280;74813;56.104;40.358;2024-03-17T11:28:03;99956.81;;;14.57;26.65
43663;BME280;74813;56.104;40.358;2024-03-17T11:38:56;99956.59;;;17.20;21.76
43663;BME280;74813;56.104;40.358;2024-03-17T11:41:40;99938.19;;;16.93;22.97
43663;BME280;74813;56.104;40.358;2024-03-17T11:46:58;99943.31;;;18.39;20.51
43663;BME280;74813;56.104;40.358;2024-03-17T11:49:37;99940.31;;;19.51;19.79
43663;BME280;74813;56.104;40.358;2024-03-17T11:52:11;99935.56;;;21.21;18.93
43663;BME280;74813;56.104;40.358;2024-03-17T11:54:45;99940.94;;;16.85;22.64
43663;BME280;74813;56.104;40.358;2024-03-17T11:57:23;99953.22;;;17.50;21.99
43663;BME280;74813;56.104;40.358;2024-03-17T11:59:56;99934.69;;;17.45;21.96
43663;BME280;74813;56.104;40.358;2024-03-17T12:02:32;99963.69;;;16.02;23.24
43663;BME280;74813;56.104;40.358;2024-03-17T12:05:05;99938.34;;;19.51;19.60
43663;BME280;74813;56.104;40.358;2024-03-17T12:07:42;99926.81;;;20.86;18.71
43663;BME280;74813;56.104;40.358;2024-03-17T12:10:15;99944.09;;;19.97;19.08
43663;BME280;74813;56.104;40.358;2024-03-17T12:12:47;99939.34;;;18.58;20.26
43663;BME280;74813;56.104;40.358;2024-03-17T12:15:20;99923.31;;;20.89;19.31
43663;BME280;74813;56.104;40.358;2024-03-17T12:17:53;99933.28;;;16.59;22.99
43663;BME280;74813;56.104;40.358;2024-03-17T12:20:25;99934.56;;;14.76;24.59
43663;BME280;74813;56.104;40.358;2024-03-17T12:22:57;99940.28;;;19.09;20.00
43663;BME280;74813;56.104;40.358;2024-03-17T12:25:30;99943.16;;;14.61;25.23
43663;BME280;74813;56.104;40.358;2024-03-17T12:28:03;99933.63;;;18.93;20.35
43663;BME280;74813;56.104;40.358;2024-03-17T12:30:35;99938.66;;;16.47;21.94
43663;BME280;74813;56.104;40.358;2024-03-17T12:33:09;99932.41;;;18.64;21.00
43663;BME280;74813;56.104;40.358;2024-03-17T12:35:43;99926.16;;;15.45;23.62
43663;BME280;74813;56.104;40.358;2024-03-17T12:38:20;99926.88;;;19.23;20.92
43663;BME280;74813;56.104;40.358;2024-03-17T12:40:53;99937.31;;;19.14;20.20
43663;BME280;74813;56.104;40.358;2024-03-17T12:43:25;99922.41;;;20.85;17.77
43663;BME280;74813;56.104;40.358;2024-03-17T12:45:57;99940.13;;;15.77;23.27
43663;BME280;74813;56.104;40.358;2024-03-17T12:48:30;99928.28;;;17.27;21.77
43663;BME280;74813;56.104;40.358;2024-03-17T12:51:02;99932.91;;;15.53;23.22
43663;BME280;74813;56.104;40.358;2024-03-17T12:53:35;99921.63;;;14.72;25.54
43663;BME280;74813;56.104;40.358;2024-03-17T12:56:07;99925.72;;;17.48;22.00
43663;BME280;74813;56.104;40.358;2024-03-17T12:58:39;99915.28;;;21.00;18.56
43663;BME280;74813;56.104;40.358;2024-03-17T13:01:13;99929.63;;;18.08;21.62
43663;BME280;74813;56.104;40.358;2024-03-17T13:03:45;99921.00;;;18.39;21.13
43663;BME280;74813;56.104;40.358;2024-03-17T13:06:23;99907.69;;;19.43;20.26
43663;BME280;74813;56.104;40.358;2024-03-17T13:08:55;99936.84;;;17.74;21.83
43663;BME280;74813;56.104;40.358;2024-03-17T13:11:28;99908.66;;;17.84;22.59
43663;BME280;74813;56.104;40.358;2024-03-17T13:14:00;99913.38;;;17.75;22.12
43663;BME280;74813;56.104;40.358;2024-03-17T13:16:32;99907.84;;;17.32;23.08
43663;BME280;74813;56.104;40.358;2024-03-17T13:19:05;99914.94;;;16.18;24.54
43663;BME280;74813;56.104;40.358;2024-03-17T13:21:37;99905.88;;;17.24;23.48
43663;BME280;74813;56.104;40.358;2024-03-17T13:24:09;99917.84;;;18.58;22.03
43663;BME280;74813;56.104;40.358;2024-03-17T13:26:41;99915.03;;;16.75;23.42
43663;BME280;74813;56.104;40.358;2024-03-17T13:29:14;99892.50;;;18.34;22.35
43663;BME280;74813;56.104;40.358;2024-03-17T13:31:46;99903.91;;;17.24;23.83